Time,TemperatureF,DewpointF,PressureIn,WindDirection,WindDirectionDegrees,WindSpeedMPH,WindSpeedGustMPH,Humidity,HourlyPrecipIn,Conditions,Clouds,dailyrainin,SoftwareType,DateUTC
2013-07-04 00:05:00,72.6,72.6,30.22,NW,314,0.0,0.0,100,0.00,,,0.00,Wunderground v.1.15,2013-07-04 04:05:00,
2013-07-04 00:10:00,72.6,72.6,30.22,NW,314,0.0,0.0,100,0.00,,,0.00,Wunderground v.1.15,2013-07-04 04:10:00,
2013-07-04 00:15:00,72.5,72.5,30.22,NW,314,0.0,0.0,100,0.00,,,0.00,Wunderground v.1.15,2013-07-04 04:15:00,
2013-07-04 00:25:00,72.4,72.4,30.22,NW,314,0.0,0.0,100,0.00,,,0.00,Wunderground v.1.15,2013-07-04 04:25:00,
2013-07-04 00:30:00,72.4,72.4,30.22,NW,314,0.0,0.0,100,0.00,,,0.00,Wunderground v.1.15,2013-07-04 04:30:00,
2013-07-04 00:35:00,72.4,72.4,30.22,NW,314,0.0,0.0,100,0.00,,,0.00,Wunderground v.1.15,2013-07-04 04:35:00,
2013-07-04 00:40:00,72.4,72.4,30.22,NW,314,0.0,0.0,100,0.00,,,0.00,Wunderground v.1.15,2013-07-04 04:40:00,
2013-07-04 00:50:00,72.5,72.5,30.22,NW,314,0.0,0.0,100,0.00,,,0.00,Wunderground v.1.15,2013-07-04 04:50:00,
2013-07-04 01:00:00,72.5,72.5,30.23,NW,314,0.0,0.0,100,0.00,,,0.00,Wunderground v.1.15,2013-07-04 05:00:00,
2013-07-04 01:05:00,72.5,72.5,30.22,NW,314,0.0,0.0,100,0.00,,,0.00,Wunderground v.1.15,2013-07-04 05:05:00,
2013-07-04 01:15:00,72.5,72.5,30.23,NW,314,0.0,0.0,100,0.00,,,0.00,Wunderground v.1.15,2013-07-04 05:15:00,
2013-07-04 01:25:00,72.4,72.4,30.23,NW,314,0.0,0.0,100,0.00,,,0.00,Wunderground v.1.15,2013-07-04 05:25:00,
2013-07-04 01:35:00,72.4,72.4,30.22,NW,314,0.0,0.0,100,0.00,,,0.00,Wunderground v.1.15,2013-07-04 05:35:00,
2013-07-04 01:40:00,72.4,72.4,30.22,NW,314,0.0,0.0,100,0.00,,,0.00,Wunderground v.1.15,2013-07-04 05:40:00,
2013-07-04 01:50:00,72.4,72.4,30.22,NW,314,0.0,0.0,100,0.00,,,0.00,Wunderground v.1.15,2013-07-04 05:50:00,
2013-07-04 02:00:00,72.6,72.6,30.22,NW,314,0.0,0.0,100,0.00,,,0.00,Wunderground v.1.15,2013-07-04 06:00:00,
2013-07-04 02:10:00,72.7,72.7,30.22,NW,314,0.0,0.0,100,0.00,,,0.00,Wunderground v.1.15,2013-07-04 06:10:00,
2013-07-04 02:20:00,73.0,73.0,30.22,NW,314,0.0,0.0,100,0.00,,,0.00,Wunderground v.1.15,2013-07-04 06:20:00,
2013-07-04 02:25:00,73.1,73.1,30.21,NW,314,0.0,0.0,100,0.00,,,0.00,Wunderground v.1.15,2013-07-04 06:25:00,
2013-07-04 02:35:00,73.3,73.3,30.21,NW,314,0.0,1.0,100,0.00,,,0.00,Wunderground v.1.15,2013-07-04 06:35:00,
2013-07-04 02:45:00,73.5,73.5,30.21,NW,314,0.0,1.0,100,0.00,,,0.00,Wunderground v.1.15,2013-07-04 06:45:00,
2013-07-04 02:55:00,73.6,73.6,30.21,NW,314,0.0,1.0,100,0.00,,,0.00,Wunderground v.1.15,2013-07-04 06:55:00,
2013-07-04 03:05:00,73.6,73.6,30.21,NW,314,0.0,0.0,100,0.00,,,0.00,Wunderground v.1.15,2013-07-04 07:05:00,
2013-07-04 03:10:00,73.7,73.7,30.21,NW,314,0.0,0.0,100,0.00,,,0.00,Wunderground v.1.15,2013-07-04 07:10:00,
2013-07-04 03:20:00,73.7,73.7,30.21,NW,314,0.0,0.0,100,0.00,,,0.00,Wunderground v.1.15,2013-07-04 07:20:00,
2013-07-04 03:30:00,73.6,73.6,30.21,NW,314,0.0,0.0,100,0.00,,,0.00,Wunderground v.1.15,2013-07-04 07:30:00,
2013-07-04 03:40:00,73.6,73.6,30.21,NW,314,0.0,0.0,100,0.00,,,0.00,Wunderground v.1.15,2013-07-04 07:40:00,
2013-07-04 03:45:00,73.5,73.5,30.21,NW,314,0.0,0.0,100,0.00,,,0.00,Wunderground v.1.15,2013-07-04 07:45:00,
2013-07-04 03:55:00,73.5,73.5,30.21,NW,314,0.0,0.0,100,0.00,,,0.00,Wunderground v.1.15,2013-07-04 07:55:00,
2013-07-04 04:05:00,73.4,73.4,30.21,NW,314,0.0,0.0,100,0.00,,,0.00,Wunderground v.1.15,2013-07-04 08:05:00,
2013-07-04 04:15:00,73.1,73.1,30.21,NW,314,0.0,0.0,100,0.00,,,0.00,Wunderground v.1.15,2013-07-04 08:15:00,
2013-07-04 04:20:00,73.1,73.1,30.21,NW,314,0.0,0.0,100,0.00,,,0.00,Wunderground v.1.15,2013-07-04 08:20:00,
2013-07-04 04:30:00,73.0,73.0,30.21,NW,314,0.0,0.0,100,0.00,,,0.00,Wunderground v.1.15,2013-07-04 08:30:00,
2013-07-04 04:40:00,72.9,72.9,30.21,NW,314,0.0,0.0,100,0.00,,,0.00,Wunderground v.1.15,2013-07-04 08:40:00,
2013-07-04 04:50:00,72.7,72.7,30.21,NW,314,0.0,0.0,100,0.00,,,0.00,Wunderground v.1.15,2013-07-04 08:50:00,
2013-07-04 04:55:00,72.6,72.6,30.21,NW,314,0.0,0.0,100,0.00,,,0.00,Wunderground v.1.15,2013-07-04 08:55:00,
2013-07-04 05:05:00,72.5,72.5,30.21,NW,314,0.0,0.0,100,0.00,,,0.00,Wunderground v.1.15,2013-07-04 09:05:00,
2013-07-04 05:15:00,72.3,72.3,30.22,NW,314,0.0,0.0,100,0.00,,,0.00,Wunderground v.1.15,2013-07-04 09:15:00,
2013-07-04 05:20:00,72.2,72.2,30.22,NW,314,0.0,0.0,100,0.00,,,0.00,Wunderground v.1.15,2013-07-04 09:20:00,
2013-07-04 05:30:00,72.2,72.2,30.21,NW,314,0.0,0.0,100,0.00,,,0.00,Wunderground v.1.15,2013-07-04 09:30:00,
2013-07-04 05:40:00,72.1,72.1,30.22,NW,314,0.0,0.0,100,0.00,,,0.00,Wunderground v.1.15,2013-07-04 09:40:00,
2013-07-04 05:50:00,72.1,72.1,30.22,NW,314,0.0,0.0,100,0.00,,,0.00,Wunderground v.1.15,2013-07-04 09:50:00,
2013-07-04 06:00:00,72.2,72.2,30.22,NW,314,0.0,0.0,100,0.00,,,0.00,Wunderground v.1.15,2013-07-04 10:00:00,
2013-07-04 06:05:00,72.2,72.2,30.22,West,262,0.0,0.0,100,0.00,,,0.00,Wunderground v.1.15,2013-07-04 10:05:00,
2013-07-04 06:15:00,72.4,72.4,30.22,West,262,0.0,0.0,100,0.00,,,0.00,Wunderground v.1.15,2013-07-04 10:15:00,
2013-07-04 06:25:00,72.5,72.5,30.22,West,262,0.0,0.0,100,0.00,,,0.00,Wunderground v.1.15,2013-07-04 10:25:00,
2013-07-04 06:30:00,72.5,72.5,30.22,West,262,0.0,0.0,100,0.00,,,0.00,Wunderground v.1.15,2013-07-04 10:30:00,
2013-07-04 06:40:00,72.7,72.7,30.23,West,262,0.0,0.0,100,0.00,,,0.00,Wunderground v.1.15,2013-07-04 10:40:00,
2013-07-04 06:50:00,72.9,72.9,30.23,West,262,0.0,0.0,100,0.00,,,0.00,Wunderground v.1.15,2013-07-04 10:50:00,
2013-07-04 07:00:00,73.2,73.2,30.23,West,262,0.0,0.0,100,0.00,,,0.00,Wunderground v.1.15,2013-07-04 11:00:00,
2013-07-04 07:10:00,73.3,73.3,30.23,West,262,0.0,0.0,100,0.00,,,0.00,Wunderground v.1.15,2013-07-04 11:10:00,
2013-07-04 07:15:00,73.3,73.3,30.24,West,262,0.0,0.0,100,0.00,,,0.00,Wunderground v.1.15,2013-07-04 11:15:00,
2013-07-04 07:25:00,73.4,73.4,30.24,West,262,0.0,0.0,100,0.00,,,0.00,Wunderground v.1.15,2013-07-04 11:25:00,
2013-07-04 07:35:00,73.5,73.5,30.24,West,262,0.0,0.0,100,0.00,,,0.00,Wunderground v.1.15,2013-07-04 11:35:00,
2013-07-04 07:45:00,73.6,73.6,30.25,West,262,0.0,0.0,100,0.00,,,0.00,Wunderground v.1.15,2013-07-04 11:45:00,
2013-07-04 07:55:00,73.8,73.8,30.25,West,262,0.0,0.0,100,0.00,,,0.00,Wunderground v.1.15,2013-07-04 11:55:00,
2013-07-04 08:00:00,73.9,73.9,30.25,West,262,0.0,0.0,100,0.00,,,0.00,Wunderground v.1.15,2013-07-04 12:00:00,
2013-07-04 08:10:00,74.0,74.0,30.25,South,181,0.0,0.0,100,0.00,,,0.00,Wunderground v.1.15,2013-07-04 12:10:00,
2013-07-04 08:20:00,74.2,74.2,30.25,South,181,0.0,0.0,100,0.00,,,0.00,Wunderground v.1.15,2013-07-04 12:20:00,
2013-07-04 08:30:00,74.5,74.5,30.25,South,181,0.0,1.0,100,0.00,,,0.00,Wunderground v.1.15,2013-07-04 12:30:00,
2013-07-04 08:40:00,74.8,74.8,30.25,South,179,0.0,0.0,100,0.00,,,0.00,Wunderground v.1.15,2013-07-04 12:40:00,
2013-07-04 08:45:00,74.8,74.8,30.25,South,179,0.0,0.0,100,0.00,,,0.00,Wunderground v.1.15,2013-07-04 12:45:00,
2013-07-04 08:55:00,74.9,74.9,30.25,South,179,0.0,0.0,100,0.00,,,0.00,Wunderground v.1.15,2013-07-04 12:55:00,
2013-07-04 09:05:00,75.7,75.7,30.25,South,179,0.0,0.0,100,0.00,,,0.00,Wunderground v.1.15,2013-07-04 13:05:00,
2013-07-04 09:15:00,76.4,76.4,30.25,South,179,0.0,0.0,100,0.00,,,0.00,Wunderground v.1.15,2013-07-04 13:15:00,
2013-07-04 09:20:00,76.2,76.2,30.25,South,179,0.0,0.0,100,0.00,,,0.00,Wunderground v.1.15,2013-07-04 13:20:00,
2013-07-04 09:30:00,75.5,75.5,30.25,South,179,0.0,1.0,100,0.00,,,0.00,Wunderground v.1.15,2013-07-04 13:30:00,
2013-07-04 09:40:00,75.4,75.4,30.25,South,179,0.0,0.0,100,0.00,,,0.00,Wunderground v.1.15,2013-07-04 13:40:00,
2013-07-04 09:50:00,75.9,75.9,30.25,WNW,282,0.0,1.0,100,0.00,,,0.00,Wunderground v.1.15,2013-07-04 13:50:00,
2013-07-04 10:00:00,76.4,76.4,30.25,WSW,246,0.0,0.0,100,0.00,,,0.00,Wunderground v.1.15,2013-07-04 14:00:00,
2013-07-04 10:05:00,77.1,77.1,30.24,WSW,246,0.0,0.0,100,0.00,,,0.00,Wunderground v.1.15,2013-07-04 14:05:00,
2013-07-04 10:15:00,77.6,77.0,30.24,SSE,159,1.0,2.0,98,0.00,,,0.00,Wunderground v.1.15,2013-07-04 14:15:00,
2013-07-04 10:25:00,77.6,76.7,30.25,SE,141,1.0,1.0,97,0.00,,,0.00,Wunderground v.1.15,2013-07-04 14:25:00,
2013-07-04 10:35:00,78.3,77.4,30.25,SE,142,0.0,1.0,97,0.00,,,0.00,Wunderground v.1.15,2013-07-04 14:35:00,
2013-07-04 10:40:00,79.0,77.1,30.24,ENE,62,0.0,0.0,94,0.00,,,0.00,Wunderground v.1.15,2013-07-04 14:40:00,
2013-07-04 10:50:00,79.6,77.4,30.24,ENE,62,0.0,0.0,93,0.00,,,0.00,Wunderground v.1.15,2013-07-04 14:50:00,
2013-07-04 11:00:00,79.2,77.3,30.24,ENE,62,1.0,1.0,94,0.00,,,0.00,Wunderground v.1.15,2013-07-04 15:00:00,
2013-07-04 11:10:00,79.0,76.8,30.24,ENE,59,0.0,0.0,93,0.00,,,0.00,Wunderground v.1.15,2013-07-04 15:10:00,
2013-07-04 11:15:00,79.5,77.3,30.24,ENE,59,1.0,1.0,93,0.00,,,0.00,Wunderground v.1.15,2013-07-04 15:15:00,
2013-07-04 11:25:00,80.6,77.7,30.24,ENE,59,1.0,1.0,91,0.00,,,0.00,Wunderground v.1.15,2013-07-04 15:25:00,
2013-07-04 11:35:00,81.0,77.4,30.24,ENE,59,1.0,1.0,89,0.00,,,0.00,Wunderground v.1.15,2013-07-04 15:35:00,
2013-07-04 11:45:00,81.9,77.6,30.24,NE,50,1.0,2.0,87,0.00,,,0.00,Wunderground v.1.15,2013-07-04 15:45:00,
2013-07-04 11:50:00,82.1,76.8,30.24,ENE,76,1.0,2.0,84,0.00,,,0.00,Wunderground v.1.15,2013-07-04 15:50:00,
2013-07-04 12:00:00,82.1,77.1,30.24,East,94,1.0,1.0,85,0.00,,,0.00,Wunderground v.1.15,2013-07-04 16:00:00,
2013-07-04 12:10:00,81.8,77.2,30.24,NNW,342,1.0,1.0,86,0.00,,,0.00,Wunderground v.1.15,2013-07-04 16:10:00,
2013-07-04 12:20:00,82.1,77.1,30.24,NNW,343,0.0,2.0,85,0.00,,,0.00,Wunderground v.1.15,2013-07-04 16:20:00,
2013-07-04 12:25:00,82.8,78.9,30.24,NNW,343,0.0,2.0,88,0.00,,,0.00,Wunderground v.1.15,2013-07-04 16:25:00,
2013-07-04 12:35:00,82.9,78.3,30.23,NNW,343,0.0,1.0,86,0.00,,,0.00,Wunderground v.1.15,2013-07-04 16:35:00,
2013-07-04 12:45:00,82.9,77.6,30.23,East,85,1.0,2.0,84,0.00,,,0.00,Wunderground v.1.15,2013-07-04 16:45:00,
2013-07-04 12:50:00,83.1,77.4,30.23,East,85,1.0,1.0,83,0.00,,,0.00,Wunderground v.1.15,2013-07-04 16:50:00,
2013-07-04 13:00:00,82.4,77.8,30.23,East,85,1.0,1.0,86,0.00,,,0.00,Wunderground v.1.15,2013-07-04 17:00:00,
2013-07-04 13:10:00,83.1,77.4,30.22,ESE,107,1.0,1.0,83,0.00,,,0.00,Wunderground v.1.15,2013-07-04 17:10:00,
2013-07-04 13:20:00,83.1,78.5,30.22,ESE,107,1.0,1.0,86,0.00,,,0.00,Wunderground v.1.15,2013-07-04 17:20:00,
2013-07-04 13:30:00,83.1,77.8,30.22,ESE,107,0.0,0.0,84,0.00,,,0.00,Wunderground v.1.15,2013-07-04 17:30:00,
2013-07-04 13:35:00,83.2,76.8,30.22,ESE,107,0.0,0.0,81,0.00,,,0.00,Wunderground v.1.15,2013-07-04 17:35:00,
2013-07-04 13:45:00,83.8,77.7,30.21,ESE,109,1.0,1.0,82,0.00,,,0.00,Wunderground v.1.15,2013-07-04 17:45:00,
2013-07-04 13:55:00,83.9,77.1,30.21,SSE,161,1.0,1.0,80,0.00,,,0.00,Wunderground v.1.15,2013-07-04 17:55:00,
2013-07-04 14:05:00,83.6,77.1,30.20,SSE,148,1.0,1.0,81,0.00,,,0.00,Wunderground v.1.15,2013-07-04 18:05:00,
2013-07-04 14:10:00,83.6,77.9,30.20,SSE,148,1.0,1.0,83,0.00,,,0.00,Wunderground v.1.15,2013-07-04 18:10:00,
2013-07-04 14:20:00,83.7,76.1,30.20,SE,146,1.0,1.0,78,0.00,,,0.00,Wunderground v.1.15,2013-07-04 18:20:00,
2013-07-04 14:30:00,83.9,78.2,30.20,ESE,110,1.0,1.0,83,0.00,,,0.00,Wunderground v.1.15,2013-07-04 18:30:00,
2013-07-04 14:40:00,83.9,76.3,30.19,East,97,1.0,1.0,78,0.00,,,0.00,Wunderground v.1.15,2013-07-04 18:40:00,
2013-07-04 14:50:00,84.0,75.6,30.19,ESE,103,1.0,1.0,76,0.00,,,0.00,Wunderground v.1.15,2013-07-04 18:50:00,
2013-07-04 14:55:00,84.0,77.5,30.20,SSE,160,1.0,1.0,81,0.00,,,0.00,Wunderground v.1.15,2013-07-04 18:55:00,
2013-07-04 15:05:00,84.0,76.0,30.19,SE,139,1.0,1.0,77,0.00,,,0.00,Wunderground v.1.15,2013-07-04 19:05:00,
2013-07-04 15:15:00,84.4,76.4,30.18,SSW,202,1.0,1.0,77,0.00,,,0.00,Wunderground v.1.15,2013-07-04 19:15:00,
2013-07-04 15:25:00,84.3,74.3,30.18,SE,134,1.0,1.0,72,0.00,,,0.00,Wunderground v.1.15,2013-07-04 19:25:00,
2013-07-04 15:30:00,84.6,74.6,30.18,East,100,1.0,1.0,72,0.00,,,0.00,Wunderground v.1.15,2013-07-04 19:30:00,
2013-07-04 15:40:00,84.5,74.5,30.18,East,100,1.0,1.0,72,0.00,,,0.00,Wunderground v.1.15,2013-07-04 19:40:00,
2013-07-04 15:50:00,84.2,76.6,30.17,East,98,1.0,1.0,78,0.00,,,0.00,Wunderground v.1.15,2013-07-04 19:50:00,
2013-07-04 16:00:00,84.3,74.7,30.17,East,98,1.0,1.0,73,0.00,,,0.00,Wunderground v.1.15,2013-07-04 20:00:00,
2013-07-04 16:05:00,84.7,75.1,30.17,East,97,1.0,1.0,73,0.00,,,0.00,Wunderground v.1.15,2013-07-04 20:05:00,
2013-07-04 16:15:00,85.5,78.2,30.17,South,175,0.0,1.0,79,0.00,,,0.00,Wunderground v.1.15,2013-07-04 20:15:00,
2013-07-04 16:25:00,85.3,76.5,30.17,South,175,0.0,1.0,75,0.00,,,0.00,Wunderground v.1.15,2013-07-04 20:25:00,
2013-07-04 16:35:00,85.0,75.4,30.17,NE,53,1.0,1.0,73,0.00,,,0.00,Wunderground v.1.15,2013-07-04 20:35:00,
2013-07-04 16:40:00,85.1,75.1,30.16,NE,53,0.0,0.0,72,0.00,,,0.00,Wunderground v.1.15,2013-07-04 20:40:00,
2013-07-04 16:50:00,85.0,76.6,30.16,NE,53,0.0,1.0,76,0.00,,,0.00,Wunderground v.1.15,2013-07-04 20:50:00,
2013-07-04 17:00:00,84.5,76.1,30.16,NE,53,1.0,1.0,76,0.00,,,0.00,Wunderground v.1.15,2013-07-04 21:00:00,
2013-07-04 17:05:00,84.5,75.3,30.16,NE,53,0.0,1.0,74,0.00,,,0.00,Wunderground v.1.15,2013-07-04 21:05:00,
2013-07-04 17:15:00,84.6,76.6,30.16,NE,53,0.0,1.0,77,0.00,,,0.00,Wunderground v.1.15,2013-07-04 21:15:00,
2013-07-04 17:25:00,84.2,75.4,30.16,ENE,67,1.0,1.0,75,0.00,,,0.00,Wunderground v.1.15,2013-07-04 21:25:00,
2013-07-04 17:35:00,83.2,75.6,30.16,ENE,67,1.0,1.0,78,0.00,,,0.00,Wunderground v.1.15,2013-07-04 21:35:00,
2013-07-04 17:40:00,82.7,75.9,30.16,ENE,67,0.0,0.0,80,0.00,,,0.00,Wunderground v.1.15,2013-07-04 21:40:00,
2013-07-04 17:50:00,82.3,76.3,30.16,ENE,67,0.0,0.0,82,0.00,,,0.00,Wunderground v.1.15,2013-07-04 21:50:00,
2013-07-04 18:00:00,82.3,77.0,30.16,ENE,67,0.0,0.0,84,0.00,,,0.00,Wunderground v.1.15,2013-07-04 22:00:00,
2013-07-04 18:10:00,81.6,76.3,30.15,ENE,67,0.0,1.0,84,0.00,,,0.00,Wunderground v.1.15,2013-07-04 22:10:00,
2013-07-04 18:15:00,81.6,76.6,30.15,ENE,67,0.0,1.0,85,0.00,,,0.00,Wunderground v.1.15,2013-07-04 22:15:00,
2013-07-04 18:25:00,80.8,75.2,30.16,SSE,147,1.0,2.0,83,0.00,,,0.00,Wunderground v.1.15,2013-07-04 22:25:00,
2013-07-04 18:35:00,80.2,74.9,30.17,SSE,147,1.0,1.0,84,0.00,,,0.00,Wunderground v.1.15,2013-07-04 22:35:00,
2013-07-04 18:45:00,79.4,75.5,30.17,SSE,147,0.0,1.0,88,0.00,,,0.00,Wunderground v.1.15,2013-07-04 22:45:00,
2013-07-04 18:55:00,79.1,75.9,30.17,SSE,147,0.0,0.0,90,0.00,,,0.00,Wunderground v.1.15,2013-07-04 22:55:00,
2013-07-04 19:00:00,79.1,76.2,30.16,SSE,147,0.0,0.0,91,0.00,,,0.00,Wunderground v.1.15,2013-07-04 23:00:00,
2013-07-04 19:10:00,79.3,76.4,30.16,SSE,147,0.0,0.0,91,0.00,,,0.00,Wunderground v.1.15,2013-07-04 23:10:00,
2013-07-04 19:20:00,79.3,76.4,30.16,SSE,147,0.0,0.0,91,0.00,,,0.00,Wunderground v.1.15,2013-07-04 23:20:00,
2013-07-04 19:25:00,79.4,76.9,30.17,SSE,147,0.0,0.0,92,0.00,,,0.00,Wunderground v.1.15,2013-07-04 23:25:00,
2013-07-04 19:35:00,79.4,76.9,30.17,SSE,147,0.0,0.0,92,0.00,,,0.00,Wunderground v.1.15,2013-07-04 23:35:00,
2013-07-04 19:45:00,79.4,77.2,30.18,SSE,147,0.0,0.0,93,0.00,,,0.00,Wunderground v.1.15,2013-07-04 23:45:00,
2013-07-04 19:55:00,79.2,77.3,30.18,SSE,147,0.0,0.0,94,0.00,,,0.00,Wunderground v.1.15,2013-07-04 23:55:00,
2013-07-04 20:05:00,78.8,76.9,30.18,SSE,147,0.0,0.0,94,0.00,,,0.00,Wunderground v.1.15,2013-07-05 00:05:00,
2013-07-04 20:15:00,78.5,76.9,30.18,SSE,147,0.0,0.0,95,0.00,,,0.00,Wunderground v.1.15,2013-07-05 00:15:00,
2013-07-04 20:20:00,78.3,76.7,30.18,SSE,147,0.0,0.0,95,0.00,,,0.00,Wunderground v.1.15,2013-07-05 00:20:00,
2013-07-04 20:30:00,77.9,76.4,30.18,SSE,147,0.0,0.0,95,0.00,,,0.00,Wunderground v.1.15,2013-07-05 00:30:00,
2013-07-04 20:40:00,77.4,75.9,30.18,SSE,147,0.0,0.0,95,0.00,,,0.00,Wunderground v.1.15,2013-07-05 00:40:00,
2013-07-04 20:45:00,77.2,75.7,30.18,SSE,147,0.0,0.0,95,0.00,,,0.00,Wunderground v.1.15,2013-07-05 00:45:00,
2013-07-04 20:55:00,77.0,75.5,30.19,SSE,147,0.0,0.0,95,0.00,,,0.00,Wunderground v.1.15,2013-07-05 00:55:00,
2013-07-04 21:05:00,76.7,75.5,30.19,SSE,147,0.0,0.0,96,0.00,,,0.00,Wunderground v.1.15,2013-07-05 01:05:00,
2013-07-04 21:10:00,76.6,75.4,30.19,SSE,147,0.0,0.0,96,0.00,,,0.00,Wunderground v.1.15,2013-07-05 01:10:00,
2013-07-04 21:20:00,76.2,74.7,30.20,SSE,147,0.0,0.0,95,0.00,,,0.00,Wunderground v.1.15,2013-07-05 01:20:00,
2013-07-04 21:30:00,75.8,74.3,30.20,SSE,147,0.0,0.0,95,0.00,,,0.00,Wunderground v.1.15,2013-07-05 01:30:00,
2013-07-04 21:40:00,75.6,73.8,30.20,SSE,147,0.0,0.0,94,0.00,,,0.00,Wunderground v.1.15,2013-07-05 01:40:00,
2013-07-04 21:45:00,75.5,73.7,30.20,SSE,147,0.0,0.0,94,0.00,,,0.00,Wunderground v.1.15,2013-07-05 01:45:00,
2013-07-04 21:55:00,75.4,73.6,30.21,SSE,147,0.0,0.0,94,0.00,,,0.00,Wunderground v.1.15,2013-07-05 01:55:00,
2013-07-04 22:05:00,75.2,73.7,30.21,SSE,147,0.0,0.0,95,0.00,,,0.00,Wunderground v.1.15,2013-07-05 02:05:00,
2013-07-04 22:15:00,74.9,73.4,30.21,SSE,147,0.0,0.0,95,0.00,,,0.00,Wunderground v.1.15,2013-07-05 02:15:00,
2013-07-04 22:25:00,74.7,72.9,30.22,SSE,147,0.0,0.0,94,0.00,,,0.00,Wunderground v.1.15,2013-07-05 02:25:00,
2013-07-04 22:35:00,74.6,73.1,30.22,SSE,147,0.0,0.0,95,0.00,,,0.00,Wunderground v.1.15,2013-07-05 02:35:00,
2013-07-04 22:45:00,74.3,72.8,30.21,SSE,147,0.0,0.0,95,0.00,,,0.00,Wunderground v.1.15,2013-07-05 02:45:00,
2013-07-04 22:55:00,74.2,72.7,30.22,SSE,147,0.0,0.0,95,0.00,,,0.00,Wunderground v.1.15,2013-07-05 02:55:00,
2013-07-04 23:05:00,74.0,72.5,30.22,SSE,147,0.0,0.0,95,0.00,,,0.00,Wunderground v.1.15,2013-07-05 03:05:00,
2013-07-04 23:10:00,73.9,72.4,30.22,SSE,147,0.0,0.0,95,0.00,,,0.00,Wunderground v.1.15,2013-07-05 03:10:00,
2013-07-04 23:20:00,73.8,72.6,30.22,SSE,147,0.0,0.0,96,0.00,,,0.00,Wunderground v.1.15,2013-07-05 03:20:00,
2013-07-04 23:30:00,73.7,72.5,30.22,SSE,147,0.0,0.0,96,0.00,,,0.00,Wunderground v.1.15,2013-07-05 03:30:00,
2013-07-04 23:40:00,73.5,72.3,30.22,SSE,147,0.0,0.0,96,0.00,,,0.00,Wunderground v.1.15,2013-07-05 03:40:00,
2013-07-04 23:50:00,73.4,72.2,30.22,SSE,147,0.0,0.0,96,0.00,,,0.00,Wunderground v.1.15,2013-07-05 03:50:00,